createdAt,value
2022-11-13T00:00:06.499Z,3.60
2022-11-13T00:02:52.694Z,3.40
2022-11-13T00:05:38.569Z,3.88
2022-11-13T00:08:24.914Z,3.20
2022-11-13T00:11:15.104Z,2.85
2022-11-13T00:14:02.131Z,4.00
2022-11-13T00:16:47.986Z,3.10
2022-11-13T00:19:33.951Z,2.55
2022-11-13T00:22:19.840Z,3.00
2022-11-13T00:25:06.251Z,1.92
2022-11-13T00:27:52.446Z,3.03
2022-11-13T00:30:38.381Z,3.33
2022-11-13T00:33:45.522Z,3.10
2022-11-13T00:36:30.762Z,4.90
2022-11-13T00:39:16.589Z,6.97
2022-11-13T00:42:02.469Z,3.47
2022-11-13T00:44:48.321Z,5.07
2022-11-13T00:47:34.252Z,8.60
2022-11-13T00:50:20.281Z,9.50
2022-11-13T00:53:06.212Z,6.95
2022-11-13T00:55:52.560Z,7.78
2022-11-13T00:58:38.900Z,6.43
2022-11-13T01:01:24.787Z,7.20
2022-11-13T01:04:11.106Z,6.85
2022-11-13T01:06:57.434Z,6.10
2022-11-13T01:09:43.385Z,8.90
2022-11-13T01:12:29.770Z,10.68
2022-11-13T01:15:16.131Z,9.18
2022-11-13T01:18:02.018Z,9.43
2022-11-13T01:20:48.132Z,9.73
2022-11-13T01:23:34.422Z,7.20
2022-11-13T01:26:23.802Z,8.73
2022-11-13T01:29:10.579Z,11.05
2022-11-13T01:31:56.930Z,12.60
2022-11-13T01:34:42.931Z,11.25
2022-11-13T01:37:29.088Z,11.07
2022-11-13T01:40:15.657Z,12.38
2022-11-13T01:43:22.800Z,12.00
2022-11-13T01:46:36.582Z,15.60
2022-11-13T01:49:33.575Z,17.63
2022-11-13T01:52:33.467Z,16.67
2022-11-13T01:55:19.880Z,16.83
2022-11-13T01:58:08.536Z,15.35
2022-11-13T02:00:55.125Z,16.45
2022-11-13T02:03:41.390Z,16.25
2022-11-13T02:06:33.445Z,13.30
2022-11-13T02:09:24.849Z,12.95
2022-11-13T02:12:15.524Z,11.80
2022-11-13T02:15:05.307Z,9.13
2022-11-13T02:18:00.160Z,8.60
2022-11-13T02:21:00.750Z,8.63
2022-11-13T02:23:57.151Z,7.07
2022-11-13T02:26:44.873Z,10.73
2022-11-13T02:29:30.819Z,7.50
2022-11-13T02:32:17.185Z,8.93
2022-11-13T02:35:03.600Z,10.48
2022-11-13T02:37:49.879Z,11.27
2022-11-13T02:40:36.017Z,12.90
2022-11-13T02:43:21.946Z,11.80
2022-11-13T02:46:08.071Z,15.73
2022-11-13T02:48:54.258Z,10.75
2022-11-13T02:51:40.246Z,18.38
2022-11-13T02:54:26.122Z,13.30
2022-11-13T02:57:12.102Z,17.35
2022-11-13T02:59:58.157Z,19.92
2022-11-13T03:02:44.178Z,15.23
2022-11-13T03:05:30.258Z,13.43
2022-11-13T03:08:16.897Z,10.13
2022-11-13T03:11:08.854Z,14.32
2022-11-13T03:13:55.206Z,11.80
2022-11-13T03:16:41.719Z,12.05
2022-11-13T03:19:28.485Z,11.65
2022-11-13T03:22:14.777Z,10.98
2022-11-13T03:25:02.153Z,14.25
2022-11-13T03:27:51.171Z,12.65
2022-11-13T03:30:37.063Z,18.10
2022-11-13T03:33:23.241Z,17.05
2022-11-13T03:36:09.529Z,14.65
2022-11-13T03:38:55.791Z,12.93
2022-11-13T03:41:41.977Z,13.02
2022-11-13T03:44:27.914Z,16.35
2022-11-13T03:47:13.887Z,20.60
2022-11-13T03:49:59.958Z,20.23
2022-11-13T03:52:45.838Z,17.80
2022-11-13T03:55:31.887Z,17.83
2022-11-13T03:58:18.895Z,15.90
2022-11-13T04:01:04.739Z,15.50
2022-11-13T04:03:50.809Z,15.90
2022-11-13T04:06:37.494Z,14.68
2022-11-13T04:09:23.298Z,12.63
2022-11-13T04:12:09.580Z,14.15
2022-11-13T04:14:55.584Z,9.98
2022-11-13T04:17:41.658Z,11.35
2022-11-13T04:20:28.317Z,13.48
2022-11-13T04:23:16.007Z,10.38
2022-11-13T04:26:02.698Z,11.55
2022-11-13T04:28:48.988Z,10.95
2022-11-13T04:31:35.034Z,11.07
2022-11-13T04:34:21.185Z,10.63
2022-11-13T04:37:07.293Z,10.55
2022-11-13T04:39:53.399Z,11.77
2022-11-13T04:42:51.476Z,16.48
2022-11-13T04:45:37.475Z,12.70
2022-11-13T04:48:23.651Z,14.13
2022-11-13T04:51:09.534Z,12.75
2022-11-13T04:53:55.474Z,12.98
2022-11-13T04:56:41.947Z,13.60
2022-11-13T04:59:28.247Z,11.40
2022-11-13T05:02:14.156Z,12.40
2022-11-13T05:05:04.600Z,9.00
2022-11-13T05:07:51.128Z,6.75
2022-11-13T05:10:37.574Z,8.82
2022-11-13T05:13:23.707Z,6.43
2022-11-13T05:16:11.916Z,5.10
2022-11-13T05:18:59.369Z,4.20
2022-11-13T05:21:45.373Z,3.15
2022-11-13T05:24:32.176Z,4.78
2022-11-13T05:27:18.516Z,5.65
2022-11-13T05:30:04.998Z,5.43
2022-11-13T05:32:52.347Z,6.72
2022-11-13T05:35:38.349Z,9.18
2022-11-13T05:38:24.650Z,6.28
2022-11-13T05:41:13.139Z,8.55
2022-11-13T05:43:59.911Z,10.88
2022-11-13T05:46:45.996Z,7.60
2022-11-13T05:49:32.106Z,9.70
2022-11-13T05:52:18.371Z,10.63
2022-11-13T05:55:05.546Z,11.23
2022-11-13T05:57:51.735Z,10.75
2022-11-13T06:00:37.883Z,12.77
2022-11-13T06:03:23.933Z,11.13
2022-11-13T06:06:16.006Z,9.02
2022-11-13T06:09:04.774Z,11.25
2022-11-13T06:11:50.994Z,13.85
2022-11-13T06:14:37.111Z,10.38
2022-11-13T06:17:23.197Z,8.55
2022-11-13T06:20:09.663Z,12.93
2022-11-13T06:22:55.584Z,12.25
2022-11-13T06:25:41.846Z,11.95
2022-11-13T06:28:28.465Z,10.40
2022-11-13T06:31:17.871Z,13.32
2022-11-13T06:34:04.927Z,10.52
2022-11-13T06:36:51.156Z,11.70
2022-11-13T06:39:37.453Z,11.80
2022-11-13T06:42:23.554Z,9.90
2022-11-13T06:45:09.935Z,12.30
2022-11-13T06:47:55.807Z,11.93
2022-11-13T06:50:47.136Z,11.75
2022-11-13T06:53:34.475Z,13.18
2022-11-13T06:56:21.021Z,14.45
2022-11-13T06:59:08.575Z,12.40
2022-11-13T07:01:54.718Z,10.48
2022-11-13T07:04:40.502Z,12.75
2022-11-13T07:07:26.644Z,11.75
2022-11-13T07:10:12.894Z,12.57
2022-11-13T07:13:01.895Z,12.57
2022-11-13T07:15:47.918Z,11.35
2022-11-13T07:18:34.646Z,14.88
2022-11-13T07:21:22.505Z,11.80
2022-11-13T07:24:11.532Z,11.18
2022-11-13T07:27:01.627Z,10.30
2022-11-13T07:29:47.756Z,11.10
2022-11-13T07:32:34.022Z,12.80
2022-11-13T07:35:20.556Z,13.38
2022-11-13T07:38:07.002Z,18.73
2022-11-13T07:40:52.772Z,12.88
2022-11-13T07:43:38.602Z,11.30
2022-11-13T07:46:24.576Z,12.82
2022-11-13T07:49:10.532Z,16.45
2022-11-13T07:51:56.665Z,11.82
2022-11-13T07:54:42.662Z,15.77
2022-11-13T07:57:28.857Z,16.48
2022-11-13T08:00:15.667Z,16.98
2022-11-13T08:03:09.756Z,15.35
2022-11-13T08:06:02.337Z,15.70
2022-11-13T08:08:49.867Z,15.55
2022-11-13T08:11:36.561Z,15.45
2022-11-13T08:14:22.847Z,14.32
2022-11-13T08:17:08.952Z,14.90
2022-11-13T08:19:54.733Z,14.02
2022-11-13T08:22:40.667Z,15.00
2022-11-13T08:25:27.688Z,13.32
2022-11-13T08:28:13.956Z,11.20
2022-11-13T08:31:00.367Z,13.27
2022-11-13T08:33:46.546Z,13.27
2022-11-13T08:36:32.396Z,14.10
2022-11-13T08:39:18.413Z,13.77
2022-11-13T08:42:05.322Z,13.32
2022-11-13T08:44:51.153Z,12.55
2022-11-13T08:47:37.594Z,12.73
2022-11-13T08:50:23.507Z,11.43
2022-11-13T08:53:11.668Z,14.10
2022-11-13T08:56:02.038Z,11.07
2022-11-13T08:58:48.299Z,14.27
2022-11-13T09:01:34.180Z,13.18
2022-11-13T09:04:20.153Z,13.32
2022-11-13T09:07:06.278Z,15.75
2022-11-13T09:09:52.111Z,12.02
2022-11-13T09:12:38.278Z,14.90
2022-11-13T09:15:24.801Z,15.20
2022-11-13T09:18:10.809Z,14.20
2022-11-13T09:21:02.972Z,12.00
2022-11-13T09:23:49.005Z,13.35
2022-11-13T09:26:36.046Z,13.98
2022-11-13T09:29:23.460Z,14.63
2022-11-13T09:32:09.872Z,16.10
2022-11-13T09:34:56.039Z,14.88
2022-11-13T09:37:42.013Z,15.57
2022-11-13T09:40:33.806Z,13.27
2022-11-13T09:43:28.670Z,15.95
2022-11-13T09:46:18.916Z,15.13
2022-11-13T09:49:16.045Z,15.02
2022-11-13T09:52:40.335Z,17.67
2022-11-13T09:55:33.879Z,13.70
2022-11-13T09:58:30.725Z,13.60
2022-11-13T10:01:25.503Z,16.35
2022-11-13T10:04:14.650Z,14.15
2022-11-13T10:07:11.510Z,13.23
2022-11-13T10:10:28.438Z,14.00
2022-11-13T10:13:41.757Z,14.82
2022-11-13T10:16:36.226Z,14.85
2022-11-13T10:19:31.417Z,13.02
2022-11-13T10:22:32.983Z,10.25
2022-11-13T10:25:23.667Z,12.68
2022-11-13T10:31:24.308Z,12.98
2022-11-13T10:34:12.065Z,13.48
2022-11-13T10:37:35.743Z,10.27
2022-11-13T10:40:27.318Z,12.68
2022-11-13T10:43:14.728Z,13.70
2022-11-13T10:46:05.923Z,13.68
2022-11-13T10:48:52.563Z,13.75
2022-11-13T10:51:39.898Z,12.60
2022-11-13T10:54:35.156Z,12.57
2022-11-13T10:57:35.494Z,12.00
2022-11-13T11:00:35.039Z,14.13
2022-11-13T11:03:25.909Z,13.77
2022-11-13T11:06:11.993Z,14.23
2022-11-13T11:09:30.047Z,14.32
2022-11-13T11:12:30.321Z,15.52
2022-11-13T11:15:41.653Z,13.57
2022-11-13T11:18:37.837Z,13.50
2022-11-13T11:21:28.675Z,16.88
2022-11-13T11:24:28.546Z,15.25
2022-11-13T11:27:34.267Z,15.57
2022-11-13T11:30:23.288Z,12.02
2022-11-13T11:33:57.413Z,15.77
2022-11-13T11:36:49.516Z,13.43
2022-11-13T11:39:41.828Z,14.20
2022-11-13T11:42:30.687Z,15.85
2022-11-13T11:45:24.800Z,15.85
2022-11-13T11:48:18.087Z,17.02
2022-11-13T11:51:26.889Z,16.50
2022-11-13T11:54:34.567Z,16.20
2022-11-13T11:57:55.748Z,15.82
2022-11-13T12:00:50.209Z,21.42
2022-11-13T12:06:48.224Z,21.05
2022-11-13T12:14:12.368Z,22.92
2022-11-13T12:17:22.696Z,21.65
2022-11-13T12:20:47.465Z,22.80
2022-11-13T12:24:01.750Z,20.95
2022-11-13T12:27:13.545Z,24.98
2022-11-13T12:30:17.368Z,24.08
2022-11-13T12:33:40.178Z,23.38
2022-11-13T12:36:26.465Z,22.50
2022-11-13T12:39:21.707Z,21.38
2022-11-13T12:42:32.345Z,22.52
2022-11-13T12:45:36.781Z,19.52
2022-11-13T12:48:29.032Z,19.33
2022-11-13T12:51:17.926Z,22.35
2022-11-13T12:54:04.305Z,22.55
2022-11-13T12:56:50.383Z,22.42
2022-11-13T12:59:39.588Z,23.20
2022-11-13T13:03:03.455Z,22.70
2022-11-13T13:06:16.224Z,24.52
2022-11-13T13:09:39.692Z,26.55
2022-11-13T13:12:47.731Z,25.85
2022-11-13T13:15:39.725Z,27.45
2022-11-13T13:18:32.979Z,28.88
2022-11-13T13:21:21.021Z,27.20
2022-11-13T13:24:09.755Z,33.30
2022-11-13T13:26:56.483Z,33.63
2022-11-13T13:29:42.527Z,32.20
2022-11-13T13:32:45.325Z,37.30
2022-11-13T13:35:47.250Z,37.38
2022-11-13T13:38:56.835Z,40.10
2022-11-13T13:41:52.104Z,40.13
2022-11-13T13:45:22.364Z,41.90
2022-11-13T13:48:14.072Z,39.95
2022-11-13T13:51:01.218Z,39.95
2022-11-13T13:53:48.960Z,42.95
2022-11-13T13:56:40.625Z,43.05
2022-11-13T13:59:33.636Z,39.47
2022-11-13T14:02:23.389Z,43.78
2022-11-13T14:05:38.321Z,37.42
2022-11-13T14:08:26.716Z,44.70
2022-11-13T14:11:31.040Z,37.90
2022-11-13T14:14:23.039Z,42.42
2022-11-13T14:17:11.136Z,43.03
2022-11-13T14:20:01.131Z,40.40
2022-11-13T14:22:56.363Z,42.42
2022-11-13T14:25:43.905Z,39.00
2022-11-13T14:28:34.024Z,40.55
2022-11-13T14:31:20.592Z,41.90
2022-11-13T14:34:13.784Z,44.67
2022-11-13T14:37:21.814Z,40.10
2022-11-13T14:40:20.927Z,43.58
2022-11-13T14:43:08.600Z,42.95
2022-11-13T14:46:01.513Z,42.00
2022-11-13T14:48:54.134Z,39.40
2022-11-13T14:51:40.685Z,37.92
2022-11-13T14:55:13.164Z,38.05
2022-11-13T14:57:50.215Z,40.10
2022-11-13T15:00:37.985Z,41.67
2022-11-13T15:03:24.590Z,39.92
2022-11-13T15:06:19.532Z,37.15
2022-11-13T15:09:13.045Z,40.83
2022-11-13T15:11:59.223Z,39.90
2022-11-13T15:14:45.363Z,40.08
2022-11-13T15:17:31.583Z,42.92
2022-11-13T15:20:20.754Z,44.53
2022-11-13T15:23:13.048Z,39.92
2022-11-13T15:25:58.903Z,45.85
2022-11-13T15:28:45.183Z,40.83
2022-11-13T15:31:34.946Z,42.53
2022-11-13T15:34:21.019Z,41.72
2022-11-13T15:37:15.661Z,44.35
2022-11-13T15:42:47.505Z,49.90
2022-11-13T15:45:33.495Z,48.95
2022-11-13T15:48:19.360Z,46.33
2022-11-13T15:51:05.581Z,53.65
2022-11-13T15:53:59.904Z,50.65
2022-11-13T15:56:47.775Z,53.40
2022-11-13T15:59:33.771Z,52.72
2022-11-13T16:02:19.921Z,50.90
2022-11-13T16:05:06.435Z,50.30
2022-11-13T16:07:53.798Z,52.53
2022-11-13T16:10:39.657Z,53.15
2022-11-13T16:13:25.754Z,55.92
2022-11-13T16:16:24.055Z,54.35
2022-11-13T16:19:22.694Z,61.53
2022-11-13T16:22:19.054Z,59.85
2022-11-13T16:25:06.171Z,62.17
2022-11-13T16:27:52.891Z,60.30
2022-11-13T16:30:39.145Z,65.82
2022-11-13T16:33:25.292Z,63.33
2022-11-13T16:36:16.613Z,72.88
2022-11-13T16:39:03.543Z,71.45
2022-11-13T16:41:49.805Z,63.72
2022-11-13T16:44:35.857Z,72.07
2022-11-13T16:47:23.700Z,68.82
2022-11-13T16:50:33.533Z,70.55
2022-11-13T16:53:19.793Z,71.03
2022-11-13T16:56:29.075Z,80.00
2022-11-13T16:59:15.753Z,72.00
2022-11-13T17:02:02.003Z,75.35
2022-11-13T17:04:47.756Z,71.15
2022-11-13T17:07:34.199Z,71.85
2022-11-13T17:10:36.322Z,73.20
2022-11-13T17:13:22.229Z,68.05
2022-11-13T17:16:11.731Z,69.63
2022-11-13T17:18:59.255Z,68.43
2022-11-13T17:21:45.162Z,75.22
2022-11-13T17:24:31.244Z,78.45
2022-11-13T17:27:17.850Z,72.00
2022-11-13T17:30:04.394Z,66.13
2022-11-13T17:32:50.729Z,62.53
2022-11-13T17:35:36.566Z,70.47
2022-11-13T17:38:22.653Z,73.55
2022-11-13T17:41:10.934Z,72.38
2022-11-13T17:44:00.844Z,68.55
2022-11-13T17:46:48.285Z,66.47
2022-11-13T17:49:34.254Z,66.32
2022-11-13T17:52:20.306Z,66.25
2022-11-13T17:55:10.842Z,68.97
2022-11-13T17:58:00.161Z,69.38
2022-11-13T18:00:46.484Z,66.68
2022-11-13T18:03:32.744Z,66.68
2022-11-13T18:06:20.254Z,71.50
2022-11-13T18:09:06.662Z,62.30
2022-11-13T18:11:52.775Z,63.17
2022-11-13T18:14:38.743Z,70.03
2022-11-13T18:17:24.974Z,65.90
2022-11-13T18:20:11.171Z,62.45
2022-11-13T18:22:57.495Z,65.88
2022-11-13T18:25:43.713Z,62.05
2022-11-13T18:28:29.703Z,65.60
2022-11-13T18:31:19.061Z,65.22
2022-11-13T18:34:06.441Z,63.80
2022-11-13T18:36:52.842Z,65.03
2022-11-13T18:39:39.165Z,61.83
2022-11-13T18:42:25.574Z,63.08
2022-11-13T18:45:12.010Z,64.00
2022-11-13T18:47:58.040Z,65.15
2022-11-13T18:50:55.493Z,60.50
2022-11-13T18:53:43.704Z,64.15
2022-11-13T18:56:32.475Z,66.07
2022-11-13T18:59:18.655Z,61.20
2022-11-13T19:02:05.019Z,63.38
2022-11-13T19:04:51.087Z,66.05
2022-11-13T19:07:37.165Z,65.97
2022-11-13T19:10:22.958Z,62.42
2022-11-13T19:13:09.335Z,65.72
2022-11-13T19:15:55.823Z,67.13
2022-11-13T19:18:44.845Z,63.75
2022-11-13T19:21:32.944Z,66.05
2022-11-13T19:24:19.306Z,66.72
2022-11-13T19:27:05.314Z,61.90
2022-11-13T19:29:51.180Z,69.30
2022-11-13T19:32:37.372Z,62.40
2022-11-13T19:35:26.543Z,67.65
2022-11-13T19:38:12.592Z,61.78
2022-11-13T19:40:58.628Z,65.60
2022-11-13T19:43:48.755Z,69.38
2022-11-13T19:46:34.674Z,67.22
2022-11-13T19:49:20.867Z,63.25
2022-11-13T19:52:07.155Z,65.13
2022-11-13T19:54:53.347Z,68.80
2022-11-13T19:57:45.952Z,67.45
2022-11-13T20:00:32.345Z,68.03
2022-11-13T20:03:18.334Z,64.88
2022-11-13T20:06:04.591Z,64.28
2022-11-13T20:08:50.626Z,62.78
2022-11-13T20:11:36.814Z,63.42
2022-11-13T20:14:23.064Z,60.88
2022-11-13T20:17:09.075Z,63.17
2022-11-13T20:19:54.903Z,65.20
2022-11-13T20:22:40.905Z,56.53
2022-11-13T20:25:28.322Z,58.53
2022-11-13T20:28:14.208Z,63.13
2022-11-13T20:31:07.146Z,56.13
2022-11-13T20:33:55.929Z,54.95
2022-11-13T20:36:42.227Z,59.60
2022-11-13T20:39:27.985Z,53.67
2022-11-13T20:42:13.962Z,50.90
2022-11-13T20:45:01.483Z,48.80
2022-11-13T20:47:47.625Z,58.03
2022-11-13T20:50:37.667Z,51.58
2022-11-13T20:53:23.954Z,54.35
2022-11-13T20:56:10.822Z,50.92
2022-11-13T20:58:56.901Z,54.45
2022-11-13T21:01:43.146Z,50.80
2022-11-13T21:04:29.076Z,51.58
2022-11-13T21:07:15.337Z,51.67
2022-11-13T21:10:02.169Z,51.67
2022-11-13T21:12:48.027Z,51.20
2022-11-13T21:15:36.864Z,48.72
2022-11-13T21:18:23.196Z,50.13
2022-11-13T21:21:11.886Z,47.28
2022-11-13T21:23:59.137Z,48.45
2022-11-13T21:26:45.061Z,45.00
2022-11-13T21:29:31.091Z,46.20
2022-11-13T21:32:17.125Z,46.50
2022-11-13T21:35:03.089Z,47.63
2022-11-13T21:37:48.876Z,43.35
2022-11-13T21:40:34.785Z,43.40
2022-11-13T21:43:20.756Z,46.85
2022-11-13T21:46:07.555Z,40.85
2022-11-13T21:49:08.925Z,46.58
2022-11-13T21:51:55.141Z,46.00
2022-11-13T21:54:40.895Z,44.92
2022-11-13T21:57:27.285Z,47.63
2022-11-13T22:00:13.786Z,44.47
2022-11-13T22:02:59.959Z,48.05
2022-11-13T22:05:46.035Z,45.35
2022-11-13T22:08:32.407Z,40.42
2022-11-13T22:11:18.514Z,45.58
2022-11-13T22:14:05.587Z,41.83
2022-11-13T22:16:51.394Z,39.40
2022-11-13T22:19:37.564Z,41.95
2022-11-13T22:22:23.605Z,40.03
2022-11-13T22:25:09.834Z,39.92
2022-11-13T22:27:56.004Z,38.17
2022-11-13T22:30:45.335Z,37.35
2022-11-13T22:33:34.220Z,35.47
2022-11-13T22:36:23.104Z,36.15
2022-11-13T22:39:08.995Z,38.13
2022-11-13T22:41:55.216Z,35.03
2022-11-13T22:44:55.580Z,33.67
2022-11-13T22:47:42.838Z,32.30
2022-11-13T22:50:29.094Z,39.22
2022-11-13T22:53:15.658Z,34.30
2022-11-13T22:56:03.265Z,34.42
2022-11-13T22:58:49.784Z,38.05
2022-11-13T23:01:38.391Z,35.20
2022-11-13T23:04:24.375Z,35.75
2022-11-13T23:07:10.648Z,33.42
2022-11-13T23:09:56.481Z,33.53
2022-11-13T23:12:43.064Z,31.98
2022-11-13T23:15:29.394Z,30.70
2022-11-13T23:18:15.594Z,36.85
2022-11-13T23:21:01.559Z,32.75
2022-11-13T23:23:47.690Z,30.55
2022-11-13T23:26:33.626Z,33.80
2022-11-13T23:29:19.743Z,30.63
2022-11-13T23:32:05.603Z,31.85
2022-11-13T23:34:59.925Z,29.58
2022-11-13T23:37:47.203Z,30.25
2022-11-13T23:40:33.165Z,37.53
2022-11-13T23:43:19.094Z,32.50
2022-11-13T23:46:05.227Z,33.22
2022-11-13T23:48:51.351Z,33.97
2022-11-13T23:51:37.060Z,35.50
2022-11-13T23:54:23.360Z,35.45
2022-11-13T23:57:09.365Z,34.83
2022-11-13T23:59:55.176Z,37.83
